This is the latest recevied weather packets stored in our database for station/object KE8WMS. If no packets are shown the sender has not sent any weather packets the latest 10 day(s).
| Time | Temp. | Humidity | Pressure | Rain* | Wind** | Luminosity | Snow |
|---|---|---|---|---|---|---|---|
| 1787844850 | 26.11° C | 75% | 1010.1 hPa | 0 mm | - | 624 W/m² | - |
| 1787844549 | 25.56° C | 76% | 1010 hPa | 0 mm | - | 187 W/m² | - |
| 1787844245 | 25.56° C | 76% | 1010 hPa | 0 mm | - | 626 W/m² | - |
| 1787843943 | 25.56° C | 77% | 1010.2 hPa | 0 mm | - | 612 W/m² | - |
| 1787843639 | 25.56° C | 78% | 1009.9 hPa | 0 mm | - | 599 W/m² | - |
| 1787843335 | 25.56° C | 78% | 1009.8 hPa | 0 mm | - | 570 W/m² | - |
| 1787843035 | 26.11° C | 79% | 1009.9 hPa | 0 mm | - | 557 W/m² | - |
| 1787842736 | 25° C | 81% | 1009.9 hPa | 0 mm | - | 533 W/m² | - |
| 1787842431 | 24.44° C | 81% | 1009.8 hPa | 0 mm | - | 519 W/m² | - |
| 1787842131 | 24.44° C | 81% | 1009.9 hPa | 0 mm | - | 525 W/m² | - |
| 1787841825 | 23.89° C | 83% | 1009.8 hPa | 0 mm | - | 508 W/m² | - |
| 1787841522 | 24.44° C | 82% | 1009.9 hPa | 0 mm | - | 499 W/m² | - |
| 1787841220 | 24.44° C | 82% | 1009.9 hPa | 0 mm | - | 480 W/m² | - |
| 1787840916 | 25° C | 80% | 1009.9 hPa | 0 mm | - | 459 W/m² | - |
| 1787840611 | 23.89° C | 82% | 1009.7 hPa | 0 mm | - | 435 W/m² | - |
| 1787840307 | 23.89° C | 82% | 1009.6 hPa | 0 mm | - | 424 W/m² | - |
| 1787840006 | 23.89° C | 83% | 1009.6 hPa | 0 mm | - | 419 W/m² | - |
| 1787839700 | 23.89° C | 83% | 1009.5 hPa | 0 mm | - | 405 W/m² | - |
| 1787839395 | 23.33° C | 84% | 1009.5 hPa | 0 mm | - | 392 W/m² | - |
| 1787839095 | 22.78° C | 87% | 1009.7 hPa | 0 mm | - | 275 W/m² | - |
| 1787838794 | 22.78° C | 87% | 1009.5 hPa | 0 mm | - | 143 W/m² | - |
| 1787838488 | 22.78° C | 88% | 1009.6 hPa | 0 mm | - | 156 W/m² | - |
| 1787838188 | 22.22° C | 88% | 1009.5 hPa | 0 mm | - | 140 W/m² | - |
| 1787837882 | 22.22° C | 88% | 1009.4 hPa | 0 mm | - | 109 W/m² | - |
| 1787837581 | 22.22° C | 88% | 1009.3 hPa | 0 mm | - | 130 W/m² | - |
* Rain latest hour (hover to see other rain measurements)
** Current wind speed in m/s (hover to see current wind gust speed)